首页
METAR-TAF:

METAR-TAF

机场 :

博伊西機場

博伊西, 爱达荷州, 美国

纬度: 43-34-00N, 经度: 116-14-26W, 海拔: 871米

当前天气观测

该预报发布于28分钟前的19:53 UTC
风速8节,风向北转西北
温度 31°C
湿度 18%
气压 1014 hPa
能見度: 16.1公里
天空无云

METAR: KBOI 181953Z 33008KT 10SM CLR 31/04 A2993 RMK AO2 SLP106 T03110044

时间: 14:21 (20:21 UTC)

预报

该预报发布于3小时和0分钟前的17:21 UTC
预报有效从18日的 18点(UTC)到 19日的 18点(UTC)
风速8节,风向西北
能見度: 10公里
天空无云
从 19日的 0400点(UTC)
风速5节,风向多变
能見度: 10公里
天空无云

TAF: KBOI 181721Z 1818/1918 31008KT P6SM SKC FM190400 VRB05KT P6SM SKC

超过4000个机场的气象观测和天气预报(METAR&TAF报告)。

可查询的气象台以黄色和红色小点在地图上表示。

将鼠标移到小点上方,可查看气象台名称。

然后点击查看天气观测和预报。

如需切换地图:点击带黑十字的绿色按钮放大地图;点击带横线的绿色按钮缩小地图;或者点击绿色箭头查看邻近地区的地图。


METAR-TAF: